Abbotsford International Airport

METAR CYXX TAF CYXX
1 °C
°C
-
°C
1h
Âge
20:08:01
LT
19:08
UTC
0 ft

4.000

8.000

12.000

16.000

20.000

FEW 300
SCT 4.500
BKN 5.800
OVC 12.000
VFR
<?= Yii::t('app', 'Wind direction') ?> <?= Yii::t('app', 'of'); ?>
360°
17:06
Coucher de soleil
93%
Humidité
Cisaillement du vent
Fermé/neige
Portée visuelle RWY
Condition RWY
Visibilité vert.
Visibilité min.
CAVOK
Tendance
Correction
Rapport spécial
30,16 inHg
QNH
METAR CYXX 011800Z 36002KT 30SM FEW003 SCT045 BKN058 OVC120 01/00 A3016 RMK SF1SC3SC4AS1 SF TR SUN VISBL SLP217
Couvert
1 kt
1 kt
11:00
VFR
5 kt
12:00
VFR
5 kt
13:00
VFR
8 kt
14:00
VFR
8 kt
15:00
VFR
8 kt
16:00
VFR
8 kt
17:00
VFR
8 kt
30 mi
Vue
5.800 ft
Base cloud
2 kt
Vent
metar-taf.com/CYXX

Metar-Taf.com

Décodeur visuel

Nous et des tiers suivons ton comportement Internet sur notre site Web à l'aide de cookies. Si tu continues, nous supposons que tu es d'accord avec notre Politique en matière de cookies.